Stewart, Texas
Current Conditions -  °F | °C
As of 8:35 PM on Sunday 21 Dec 2014 (Local Time) from KRFI Reporting Station
Overcast Overcast  
Wind Chill: 50°   Ceiling: 2100
Heat Index: 50°   Visibility: 10mi
Dew Point: 46°   Wind: 8mph
Humidity: 86%   Direction: 150°SSE
Pressure: 29.91"   Gusts: NA
Location:  32.1449°N, 94.7416°W
Report Text: KRFI 220235Z AUTO 15007KT 10SM OVC021 10/08 A2991 RMK AO2 T01000078
Loading
Personal Weather Stations






























Interactive Weather Map New forecast layout! Learn more

10-Day Weather Forecast

Advertisements
Track Severe Weather on mobile